sensor_id;sensor_type;location;lat;lon;timestamp;P1;durP1;ratioP1;P2;durP2;ratioP2
17363;SDS011;8799;43.594;13.526;2022-10-16T00:01:32;24.00;;;13.73;;
17363;SDS011;8799;43.594;13.526;2022-10-16T00:04:00;24.07;;;14.77;;
17363;SDS011;8799;43.594;13.526;2022-10-16T00:09:29;24.47;;;13.57;;
17363;SDS011;8799;43.594;13.526;2022-10-16T00:12:00;20.97;;;13.67;;
17363;SDS011;8799;43.594;13.526;2022-10-16T00:14:31;21.73;;;14.07;;
17363;SDS011;8799;43.594;13.526;2022-10-16T00:16:59;22.07;;;14.30;;
17363;SDS011;8799;43.594;13.526;2022-10-16T00:19:27;25.23;;;14.60;;
17363;SDS011;8799;43.594;13.526;2022-10-16T00:21:56;23.27;;;13.93;;
17363;SDS011;8799;43.594;13.526;2022-10-16T00:24:24;21.30;;;13.27;;
17363;SDS011;8799;43.594;13.526;2022-10-16T00:26:52;22.90;;;14.17;;
17363;SDS011;8799;43.594;13.526;2022-10-16T00:29:24;22.83;;;14.47;;
17363;SDS011;8799;43.594;13.526;2022-10-16T00:31:52;23.70;;;15.43;;
17363;SDS011;8799;43.594;13.526;2022-10-16T00:34:20;22.07;;;13.93;;
17363;SDS011;8799;43.594;13.526;2022-10-16T00:36:48;21.70;;;14.23;;
17363;SDS011;8799;43.594;13.526;2022-10-16T00:39:17;19.53;;;13.50;;
17363;SDS011;8799;43.594;13.526;2022-10-16T00:41:45;20.87;;;14.13;;
17363;SDS011;8799;43.594;13.526;2022-10-16T00:47:09;24.23;;;14.67;;
17363;SDS011;8799;43.594;13.526;2022-10-16T00:49:39;20.70;;;13.23;;
17363;SDS011;8799;43.594;13.526;2022-10-16T00:52:11;23.77;;;14.40;;
17363;SDS011;8799;43.594;13.526;2022-10-16T00:54:41;21.83;;;14.77;;
17363;SDS011;8799;43.594;13.526;2022-10-16T00:57:09;19.97;;;13.83;;
17363;SDS011;8799;43.594;13.526;2022-10-16T00:59:37;25.17;;;14.63;;
17363;SDS011;8799;43.594;13.526;2022-10-16T01:02:07;23.77;;;14.67;;
17363;SDS011;8799;43.594;13.526;2022-10-16T01:04:40;22.17;;;13.93;;
17363;SDS011;8799;43.594;13.526;2022-10-16T01:07:11;20.97;;;13.70;;
17363;SDS011;8799;43.594;13.526;2022-10-16T01:09:47;24.87;;;13.90;;
17363;SDS011;8799;43.594;13.526;2022-10-16T01:12:23;20.90;;;13.83;;
17363;SDS011;8799;43.594;13.526;2022-10-16T01:14:59;18.40;;;13.17;;
17363;SDS011;8799;43.594;13.526;2022-10-16T01:17:34;21.53;;;14.07;;
17363;SDS011;8799;43.594;13.526;2022-10-16T01:20:08;24.57;;;14.57;;
17363;SDS011;8799;43.594;13.526;2022-10-16T01:22:43;22.17;;;13.47;;
17363;SDS011;8799;43.594;13.526;2022-10-16T01:25:21;19.23;;;13.13;;
17363;SDS011;8799;43.594;13.526;2022-10-16T01:27:56;19.37;;;13.10;;
17363;SDS011;8799;43.594;13.526;2022-10-16T01:30:26;19.33;;;13.20;;
17363;SDS011;8799;43.594;13.526;2022-10-16T01:32:59;21.50;;;13.03;;
17363;SDS011;8799;43.594;13.526;2022-10-16T01:35:30;21.93;;;13.90;;
17363;SDS011;8799;43.594;13.526;2022-10-16T01:38:03;19.97;;;13.43;;
17363;SDS011;8799;43.594;13.526;2022-10-16T01:40:35;21.40;;;13.37;;
17363;SDS011;8799;43.594;13.526;2022-10-16T01:43:07;21.83;;;14.50;;
17363;SDS011;8799;43.594;13.526;2022-10-16T01:45:39;18.87;;;12.97;;
17363;SDS011;8799;43.594;13.526;2022-10-16T01:48:09;22.23;;;13.27;;
17363;SDS011;8799;43.594;13.526;2022-10-16T01:50:39;21.17;;;13.63;;
17363;SDS011;8799;43.594;13.526;2022-10-16T01:53:09;24.77;;;13.53;;
17363;SDS011;8799;43.594;13.526;2022-10-16T01:55:40;22.87;;;13.80;;
17363;SDS011;8799;43.594;13.526;2022-10-16T01:58:13;17.90;;;12.70;;
17363;SDS011;8799;43.594;13.526;2022-10-16T02:00:42;20.90;;;13.27;;
17363;SDS011;8799;43.594;13.526;2022-10-16T02:03:12;21.90;;;13.83;;
17363;SDS011;8799;43.594;13.526;2022-10-16T02:05:44;21.80;;;14.10;;
17363;SDS011;8799;43.594;13.526;2022-10-16T02:08:13;21.03;;;13.93;;
17363;SDS011;8799;43.594;13.526;2022-10-16T02:10:42;22.23;;;13.97;;
17363;SDS011;8799;43.594;13.526;2022-10-16T02:13:10;20.63;;;13.03;;
17363;SDS011;8799;43.594;13.526;2022-10-16T02:15:43;21.50;;;13.93;;
17363;SDS011;8799;43.594;13.526;2022-10-16T02:18:10;19.53;;;13.33;;
17363;SDS011;8799;43.594;13.526;2022-10-16T02:20:40;26.53;;;15.07;;
17363;SDS011;8799;43.594;13.526;2022-10-16T02:23:18;20.60;;;13.37;;
17363;SDS011;8799;43.594;13.526;2022-10-16T02:25:49;20.00;;;12.80;;
17363;SDS011;8799;43.594;13.526;2022-10-16T02:28:22;21.03;;;14.17;;
17363;SDS011;8799;43.594;13.526;2022-10-16T02:30:54;21.60;;;14.33;;
17363;SDS011;8799;43.594;13.526;2022-10-16T02:33:26;19.93;;;13.37;;
17363;SDS011;8799;43.594;13.526;2022-10-16T02:35:55;21.37;;;13.83;;
17363;SDS011;8799;43.594;13.526;2022-10-16T02:38:25;20.70;;;13.47;;
17363;SDS011;8799;43.594;13.526;2022-10-16T02:40:53;21.50;;;14.23;;
17363;SDS011;8799;43.594;13.526;2022-10-16T02:43:24;18.57;;;12.63;;
17363;SDS011;8799;43.594;13.526;2022-10-16T02:45:52;18.53;;;13.13;;
17363;SDS011;8799;43.594;13.526;2022-10-16T02:48:19;22.53;;;13.70;;
17363;SDS011;8799;43.594;13.526;2022-10-16T02:50:47;19.93;;;13.20;;
17363;SDS011;8799;43.594;13.526;2022-10-16T02:53:14;24.13;;;13.37;;
17363;SDS011;8799;43.594;13.526;2022-10-16T02:55:42;20.13;;;13.47;;
17363;SDS011;8799;43.594;13.526;2022-10-16T02:58:09;19.10;;;12.37;;
17363;SDS011;8799;43.594;13.526;2022-10-16T03:00:39;21.00;;;13.87;;
17363;SDS011;8799;43.594;13.526;2022-10-16T03:03:07;17.93;;;12.83;;
17363;SDS011;8799;43.594;13.526;2022-10-16T03:05:35;20.60;;;13.37;;
17363;SDS011;8799;43.594;13.526;2022-10-16T03:08:03;21.40;;;13.53;;
17363;SDS011;8799;43.594;13.526;2022-10-16T03:10:31;18.43;;;12.53;;
17363;SDS011;8799;43.594;13.526;2022-10-16T03:12:58;20.97;;;12.77;;
17363;SDS011;8799;43.594;13.526;2022-10-16T03:15:26;20.10;;;12.77;;
17363;SDS011;8799;43.594;13.526;2022-10-16T03:17:56;22.37;;;13.73;;
17363;SDS011;8799;43.594;13.526;2022-10-16T03:20:24;18.20;;;12.03;;
17363;SDS011;8799;43.594;13.526;2022-10-16T03:22:51;18.60;;;12.60;;
17363;SDS011;8799;43.594;13.526;2022-10-16T03:25:19;18.30;;;12.57;;
17363;SDS011;8799;43.594;13.526;2022-10-16T03:27:47;21.13;;;12.97;;
17363;SDS011;8799;43.594;13.526;2022-10-16T03:30:15;18.63;;;12.57;;
17363;SDS011;8799;43.594;13.526;2022-10-16T03:32:43;18.97;;;12.93;;
17363;SDS011;8799;43.594;13.526;2022-10-16T03:35:13;17.87;;;12.10;;
17363;SDS011;8799;43.594;13.526;2022-10-16T03:37:41;20.97;;;12.20;;
17363;SDS011;8799;43.594;13.526;2022-10-16T03:40:10;20.00;;;13.10;;
17363;SDS011;8799;43.594;13.526;2022-10-16T03:42:37;21.10;;;12.83;;
17363;SDS011;8799;43.594;13.526;2022-10-16T03:45:05;21.43;;;13.97;;
17363;SDS011;8799;43.594;13.526;2022-10-16T03:47:35;19.90;;;12.60;;
17363;SDS011;8799;43.594;13.526;2022-10-16T03:50:03;17.30;;;12.07;;
17363;SDS011;8799;43.594;13.526;2022-10-16T03:52:33;20.43;;;12.60;;
17363;SDS011;8799;43.594;13.526;2022-10-16T03:55:00;21.17;;;14.07;;
17363;SDS011;8799;43.594;13.526;2022-10-16T03:57:28;19.97;;;13.40;;
17363;SDS011;8799;43.594;13.526;2022-10-16T03:59:55;22.17;;;12.80;;
17363;SDS011;8799;43.594;13.526;2022-10-16T04:02:23;21.53;;;12.97;;
17363;SDS011;8799;43.594;13.526;2022-10-16T04:04:51;20.80;;;13.57;;
17363;SDS011;8799;43.594;13.526;2022-10-16T04:07:18;18.07;;;12.67;;
17363;SDS011;8799;43.594;13.526;2022-10-16T04:09:47;20.70;;;12.30;;
17363;SDS011;8799;43.594;13.526;2022-10-16T04:12:17;19.50;;;12.73;;
17363;SDS011;8799;43.594;13.526;2022-10-16T04:14:45;18.07;;;12.83;;
17363;SDS011;8799;43.594;13.526;2022-10-16T04:17:13;21.57;;;13.07;;
17363;SDS011;8799;43.594;13.526;2022-10-16T04:19:41;18.60;;;12.20;;
17363;SDS011;8799;43.594;13.526;2022-10-16T04:22:12;18.43;;;12.27;;
17363;SDS011;8799;43.594;13.526;2022-10-16T04:24:40;22.60;;;13.07;;
17363;SDS011;8799;43.594;13.526;2022-10-16T04:27:09;20.07;;;11.83;;
17363;SDS011;8799;43.594;13.526;2022-10-16T04:29:37;20.97;;;13.33;;
17363;SDS011;8799;43.594;13.526;2022-10-16T04:32:06;19.73;;;12.70;;
17363;SDS011;8799;43.594;13.526;2022-10-16T04:34:36;19.53;;;12.47;;
17363;SDS011;8799;43.594;13.526;2022-10-16T04:37:05;20.70;;;12.80;;
17363;SDS011;8799;43.594;13.526;2022-10-16T04:39:33;18.60;;;12.47;;
17363;SDS011;8799;43.594;13.526;2022-10-16T04:42:01;20.73;;;12.80;;
17363;SDS011;8799;43.594;13.526;2022-10-16T04:44:31;19.43;;;12.40;;
17363;SDS011;8799;43.594;13.526;2022-10-16T04:46:58;19.33;;;12.47;;
17363;SDS011;8799;43.594;13.526;2022-10-16T04:49:26;17.80;;;12.10;;
17363;SDS011;8799;43.594;13.526;2022-10-16T04:51:53;19.83;;;13.07;;
17363;SDS011;8799;43.594;13.526;2022-10-16T04:54:21;21.47;;;13.47;;
17363;SDS011;8799;43.594;13.526;2022-10-16T04:56:49;20.03;;;13.13;;
17363;SDS011;8799;43.594;13.526;2022-10-16T04:59:17;20.33;;;13.27;;
17363;SDS011;8799;43.594;13.526;2022-10-16T05:01:47;19.37;;;12.80;;
17363;SDS011;8799;43.594;13.526;2022-10-16T05:04:15;22.73;;;13.23;;
17363;SDS011;8799;43.594;13.526;2022-10-16T05:06:42;20.03;;;13.27;;
17363;SDS011;8799;43.594;13.526;2022-10-16T05:09:11;20.50;;;12.90;;
17363;SDS011;8799;43.594;13.526;2022-10-16T05:11:39;21.97;;;13.43;;
17363;SDS011;8799;43.594;13.526;2022-10-16T05:14:06;23.50;;;14.23;;
17363;SDS011;8799;43.594;13.526;2022-10-16T05:16:33;18.83;;;13.53;;
17363;SDS011;8799;43.594;13.526;2022-10-16T05:19:02;18.27;;;12.30;;
17363;SDS011;8799;43.594;13.526;2022-10-16T05:21:34;18.57;;;12.63;;
17363;SDS011;8799;43.594;13.526;2022-10-16T05:24:02;21.83;;;13.80;;
17363;SDS011;8799;43.594;13.526;2022-10-16T05:26:30;22.10;;;12.80;;
17363;SDS011;8799;43.594;13.526;2022-10-16T05:28:58;19.13;;;12.67;;
17363;SDS011;8799;43.594;13.526;2022-10-16T05:31:26;24.53;;;13.80;;
17363;SDS011;8799;43.594;13.526;2022-10-16T05:33:57;20.23;;;13.07;;
17363;SDS011;8799;43.594;13.526;2022-10-16T05:36:27;24.23;;;14.10;;
17363;SDS011;8799;43.594;13.526;2022-10-16T05:38:55;24.27;;;14.03;;
17363;SDS011;8799;43.594;13.526;2022-10-16T05:41:22;22.70;;;13.50;;
17363;SDS011;8799;43.594;13.526;2022-10-16T05:43:51;22.30;;;13.80;;
17363;SDS011;8799;43.594;13.526;2022-10-16T05:46:19;23.40;;;14.67;;
17363;SDS011;8799;43.594;13.526;2022-10-16T05:48:46;25.33;;;14.00;;
17363;SDS011;8799;43.594;13.526;2022-10-16T05:51:14;25.03;;;13.97;;
17363;SDS011;8799;43.594;13.526;2022-10-16T05:53:43;23.60;;;14.00;;
17363;SDS011;8799;43.594;13.526;2022-10-16T05:56:11;24.63;;;14.80;;
17363;SDS011;8799;43.594;13.526;2022-10-16T05:58:39;24.57;;;15.17;;
17363;SDS011;8799;43.594;13.526;2022-10-16T06:01:09;22.30;;;14.30;;
17363;SDS011;8799;43.594;13.526;2022-10-16T06:03:38;21.60;;;13.90;;
17363;SDS011;8799;43.594;13.526;2022-10-16T06:06:09;23.37;;;14.83;;
17363;SDS011;8799;43.594;13.526;2022-10-16T06:08:53;22.27;;;14.33;;
17363;SDS011;8799;43.594;13.526;2022-10-16T06:11:23;23.47;;;13.83;;
17363;SDS011;8799;43.594;13.526;2022-10-16T06:13:53;24.77;;;13.90;;
17363;SDS011;8799;43.594;13.526;2022-10-16T06:16:23;22.67;;;13.73;;
17363;SDS011;8799;43.594;13.526;2022-10-16T06:18:52;22.63;;;13.57;;
17363;SDS011;8799;43.594;13.526;2022-10-16T06:21:22;23.80;;;15.00;;
17363;SDS011;8799;43.594;13.526;2022-10-16T06:23:52;23.07;;;14.00;;
17363;SDS011;8799;43.594;13.526;2022-10-16T06:26:22;24.00;;;14.43;;
17363;SDS011;8799;43.594;13.526;2022-10-16T06:28:51;24.33;;;15.00;;
17363;SDS011;8799;43.594;13.526;2022-10-16T06:31:21;21.10;;;13.60;;
17363;SDS011;8799;43.594;13.526;2022-10-16T06:33:50;22.47;;;13.50;;
17363;SDS011;8799;43.594;13.526;2022-10-16T06:36:18;28.00;;;14.10;;
17363;SDS011;8799;43.594;13.526;2022-10-16T06:38:45;25.50;;;14.00;;
17363;SDS011;8799;43.594;13.526;2022-10-16T06:41:15;26.47;;;13.93;;
17363;SDS011;8799;43.594;13.526;2022-10-16T06:43:44;24.73;;;14.80;;
17363;SDS011;8799;43.594;13.526;2022-10-16T06:46:13;25.60;;;14.87;;
17363;SDS011;8799;43.594;13.526;2022-10-16T06:48:42;24.17;;;14.93;;
17363;SDS011;8799;43.594;13.526;2022-10-16T06:51:11;24.97;;;14.00;;
17363;SDS011;8799;43.594;13.526;2022-10-16T06:53:40;24.87;;;14.33;;
17363;SDS011;8799;43.594;13.526;2022-10-16T06:56:10;22.70;;;14.23;;
17363;SDS011;8799;43.594;13.526;2022-10-16T06:58:42;24.30;;;14.07;;
17363;SDS011;8799;43.594;13.526;2022-10-16T07:01:10;26.17;;;14.70;;
17363;SDS011;8799;43.594;13.526;2022-10-16T07:03:43;22.13;;;13.43;;
17363;SDS011;8799;43.594;13.526;2022-10-16T07:06:12;24.93;;;14.03;;
17363;SDS011;8799;43.594;13.526;2022-10-16T07:08:42;22.37;;;13.50;;
17363;SDS011;8799;43.594;13.526;2022-10-16T07:11:11;28.80;;;15.07;;
17363;SDS011;8799;43.594;13.526;2022-10-16T07:13:42;25.00;;;13.77;;
17363;SDS011;8799;43.594;13.526;2022-10-16T07:16:11;21.67;;;13.43;;
17363;SDS011;8799;43.594;13.526;2022-10-16T07:18:40;20.23;;;13.70;;
17363;SDS011;8799;43.594;13.526;2022-10-16T07:21:11;24.53;;;14.20;;
17363;SDS011;8799;43.594;13.526;2022-10-16T07:23:40;22.73;;;14.07;;
17363;SDS011;8799;43.594;13.526;2022-10-16T07:26:08;23.07;;;14.80;;
17363;SDS011;8799;43.594;13.526;2022-10-16T07:28:36;21.03;;;14.27;;
17363;SDS011;8799;43.594;13.526;2022-10-16T07:31:06;22.67;;;13.83;;
17363;SDS011;8799;43.594;13.526;2022-10-16T07:33:41;23.13;;;13.70;;
17363;SDS011;8799;43.594;13.526;2022-10-16T07:36:09;23.27;;;14.03;;
17363;SDS011;8799;43.594;13.526;2022-10-16T07:38:40;25.00;;;15.17;;
17363;SDS011;8799;43.594;13.526;2022-10-16T07:41:10;22.43;;;14.20;;
17363;SDS011;8799;43.594;13.526;2022-10-16T07:43:39;23.53;;;14.57;;
17363;SDS011;8799;43.594;13.526;2022-10-16T07:46:09;22.60;;;15.00;;
17363;SDS011;8799;43.594;13.526;2022-10-16T07:48:36;23.87;;;14.20;;
17363;SDS011;8799;43.594;13.526;2022-10-16T07:51:05;25.70;;;14.17;;
17363;SDS011;8799;43.594;13.526;2022-10-16T07:53:33;23.33;;;13.93;;
17363;SDS011;8799;43.594;13.526;2022-10-16T07:56:02;21.43;;;13.37;;
17363;SDS011;8799;43.594;13.526;2022-10-16T07:58:31;20.20;;;12.67;;
17363;SDS011;8799;43.594;13.526;2022-10-16T08:01:02;19.30;;;12.43;;
17363;SDS011;8799;43.594;13.526;2022-10-16T08:03:33;23.53;;;12.33;;
17363;SDS011;8799;43.594;13.526;2022-10-16T08:06:01;21.57;;;12.83;;
17363;SDS011;8799;43.594;13.526;2022-10-16T08:08:30;20.47;;;12.23;;
17363;SDS011;8799;43.594;13.526;2022-10-16T08:10:58;22.43;;;12.43;;
17363;SDS011;8799;43.594;13.526;2022-10-16T08:13:25;20.07;;;11.30;;
17363;SDS011;8799;43.594;13.526;2022-10-16T08:15:53;20.40;;;11.43;;
17363;SDS011;8799;43.594;13.526;2022-10-16T08:18:21;19.30;;;10.83;;
17363;SDS011;8799;43.594;13.526;2022-10-16T08:20:56;17.47;;;10.90;;
17363;SDS011;8799;43.594;13.526;2022-10-16T08:23:24;16.87;;;9.83;;
17363;SDS011;8799;43.594;13.526;2022-10-16T08:25:52;18.93;;;9.80;;
17363;SDS011;8799;43.594;13.526;2022-10-16T08:28:20;17.73;;;10.00;;
17363;SDS011;8799;43.594;13.526;2022-10-16T08:30:48;15.43;;;9.63;;
17363;SDS011;8799;43.594;13.526;2022-10-16T08:33:16;15.53;;;9.53;;
17363;SDS011;8799;43.594;13.526;2022-10-16T08:35:50;16.10;;;10.03;;
17363;SDS011;8799;43.594;13.526;2022-10-16T08:38:24;21.47;;;10.23;;
17363;SDS011;8799;43.594;13.526;2022-10-16T08:40:52;16.77;;;9.10;;
17363;SDS011;8799;43.594;13.526;2022-10-16T08:43:28;15.50;;;9.23;;
17363;SDS011;8799;43.594;13.526;2022-10-16T08:46:15;17.93;;;9.27;;
17363;SDS011;8799;43.594;13.526;2022-10-16T08:48:53;16.93;;;8.83;;
17363;SDS011;8799;43.594;13.526;2022-10-16T08:51:23;15.27;;;8.93;;
17363;SDS011;8799;43.594;13.526;2022-10-16T08:53:55;14.50;;;9.03;;
17363;SDS011;8799;43.594;13.526;2022-10-16T08:56:24;14.37;;;7.80;;
17363;SDS011;8799;43.594;13.526;2022-10-16T08:58:52;13.37;;;7.93;;
17363;SDS011;8799;43.594;13.526;2022-10-16T09:01:22;13.43;;;8.43;;
17363;SDS011;8799;43.594;13.526;2022-10-16T09:03:56;14.37;;;8.63;;
17363;SDS011;8799;43.594;13.526;2022-10-16T09:06:39;13.37;;;7.83;;
17363;SDS011;8799;43.594;13.526;2022-10-16T09:09:20;12.67;;;8.03;;
17363;SDS011;8799;43.594;13.526;2022-10-16T09:12:08;13.53;;;7.87;;
17363;SDS011;8799;43.594;13.526;2022-10-16T09:14:50;14.87;;;9.20;;
17363;SDS011;8799;43.594;13.526;2022-10-16T09:17:30;15.13;;;8.47;;
17363;SDS011;8799;43.594;13.526;2022-10-16T09:20:09;13.87;;;9.13;;
17363;SDS011;8799;43.594;13.526;2022-10-16T09:23:00;13.47;;;9.13;;
17363;SDS011;8799;43.594;13.526;2022-10-16T09:25:44;15.83;;;9.90;;
17363;SDS011;8799;43.594;13.526;2022-10-16T09:28:14;19.03;;;10.73;;
17363;SDS011;8799;43.594;13.526;2022-10-16T09:30:43;19.43;;;11.03;;
17363;SDS011;8799;43.594;13.526;2022-10-16T09:33:12;19.83;;;11.63;;
17363;SDS011;8799;43.594;13.526;2022-10-16T09:35:41;17.87;;;11.17;;
17363;SDS011;8799;43.594;13.526;2022-10-16T09:38:20;17.20;;;11.67;;
17363;SDS011;8799;43.594;13.526;2022-10-16T09:40:50;19.23;;;10.70;;
17363;SDS011;8799;43.594;13.526;2022-10-16T09:43:22;18.07;;;11.03;;
17363;SDS011;8799;43.594;13.526;2022-10-16T09:45:59;18.57;;;10.90;;
17363;SDS011;8799;43.594;13.526;2022-10-16T09:48:29;18.20;;;10.70;;
17363;SDS011;8799;43.594;13.526;2022-10-16T09:51:02;18.10;;;11.40;;
17363;SDS011;8799;43.594;13.526;2022-10-16T09:53:38;16.33;;;10.60;;
17363;SDS011;8799;43.594;13.526;2022-10-16T09:56:10;20.20;;;11.17;;
17363;SDS011;8799;43.594;13.526;2022-10-16T09:58:49;15.73;;;10.03;;
17363;SDS011;8799;43.594;13.526;2022-10-16T10:01:17;16.37;;;10.47;;
17363;SDS011;8799;43.594;13.526;2022-10-16T10:03:46;17.63;;;10.53;;
17363;SDS011;8799;43.594;13.526;2022-10-16T10:06:19;21.40;;;11.43;;
17363;SDS011;8799;43.594;13.526;2022-10-16T10:08:53;15.70;;;10.03;;
17363;SDS011;8799;43.594;13.526;2022-10-16T10:11:40;18.73;;;10.03;;
17363;SDS011;8799;43.594;13.526;2022-10-16T10:14:15;18.37;;;10.07;;
17363;SDS011;8799;43.594;13.526;2022-10-16T10:16:47;20.60;;;10.33;;
17363;SDS011;8799;43.594;13.526;2022-10-16T10:19:16;19.67;;;10.23;;
17363;SDS011;8799;43.594;13.526;2022-10-16T10:21:45;15.50;;;9.47;;
17363;SDS011;8799;43.594;13.526;2022-10-16T10:24:14;16.67;;;10.17;;
17363;SDS011;8799;43.594;13.526;2022-10-16T10:26:47;16.00;;;10.13;;
17363;SDS011;8799;43.594;13.526;2022-10-16T10:29:25;17.63;;;9.93;;
17363;SDS011;8799;43.594;13.526;2022-10-16T10:32:05;16.73;;;10.00;;
17363;SDS011;8799;43.594;13.526;2022-10-16T10:34:45;19.10;;;11.00;;
17363;SDS011;8799;43.594;13.526;2022-10-16T10:37:29;17.67;;;9.77;;
17363;SDS011;8799;43.594;13.526;2022-10-16T10:40:07;17.70;;;9.53;;
17363;SDS011;8799;43.594;13.526;2022-10-16T10:42:46;19.23;;;10.70;;
17363;SDS011;8799;43.594;13.526;2022-10-16T10:45:19;17.53;;;10.63;;
17363;SDS011;8799;43.594;13.526;2022-10-16T10:47:57;16.03;;;9.53;;
17363;SDS011;8799;43.594;13.526;2022-10-16T10:50:33;20.17;;;10.97;;
17363;SDS011;8799;43.594;13.526;2022-10-16T10:53:09;13.77;;;9.53;;
17363;SDS011;8799;43.594;13.526;2022-10-16T10:55:44;16.60;;;10.47;;
17363;SDS011;8799;43.594;13.526;2022-10-16T10:58:29;14.50;;;9.83;;
17363;SDS011;8799;43.594;13.526;2022-10-16T11:01:13;17.57;;;9.63;;
17363;SDS011;8799;43.594;13.526;2022-10-16T11:03:46;15.37;;;9.97;;
17363;SDS011;8799;43.594;13.526;2022-10-16T11:06:30;15.37;;;9.57;;
17363;SDS011;8799;43.594;13.526;2022-10-16T11:09:02;20.27;;;9.67;;
17363;SDS011;8799;43.594;13.526;2022-10-16T11:11:38;16.47;;;9.93;;
17363;SDS011;8799;43.594;13.526;2022-10-16T11:14:13;16.63;;;9.60;;
17363;SDS011;8799;43.594;13.526;2022-10-16T11:16:46;16.70;;;8.60;;
17363;SDS011;8799;43.594;13.526;2022-10-16T11:19:22;15.60;;;9.47;;
17363;SDS011;8799;43.594;13.526;2022-10-16T11:22:00;16.47;;;9.20;;
17363;SDS011;8799;43.594;13.526;2022-10-16T11:24:37;14.90;;;8.37;;
17363;SDS011;8799;43.594;13.526;2022-10-16T11:27:11;18.40;;;9.27;;
17363;SDS011;8799;43.594;13.526;2022-10-16T11:29:46;15.23;;;8.87;;
17363;SDS011;8799;43.594;13.526;2022-10-16T11:32:21;12.80;;;7.50;;
17363;SDS011;8799;43.594;13.526;2022-10-16T11:34:55;12.17;;;7.60;;
17363;SDS011;8799;43.594;13.526;2022-10-16T11:37:27;15.57;;;9.00;;
17363;SDS011;8799;43.594;13.526;2022-10-16T11:40:03;15.50;;;8.07;;
17363;SDS011;8799;43.594;13.526;2022-10-16T11:42:44;16.23;;;8.70;;
17363;SDS011;8799;43.594;13.526;2022-10-16T11:45:23;14.33;;;9.07;;
17363;SDS011;8799;43.594;13.526;2022-10-16T11:47:57;14.33;;;8.43;;
17363;SDS011;8799;43.594;13.526;2022-10-16T11:50:34;12.33;;;7.83;;
17363;SDS011;8799;43.594;13.526;2022-10-16T11:53:07;14.43;;;8.17;;
17363;SDS011;8799;43.594;13.526;2022-10-16T11:55:41;13.90;;;7.80;;
17363;SDS011;8799;43.594;13.526;2022-10-16T11:58:13;15.53;;;8.33;;
17363;SDS011;8799;43.594;13.526;2022-10-16T12:00:53;12.00;;;7.13;;
17363;SDS011;8799;43.594;13.526;2022-10-16T12:03:26;12.80;;;7.43;;
17363;SDS011;8799;43.594;13.526;2022-10-16T12:06:05;11.20;;;6.73;;
17363;SDS011;8799;43.594;13.526;2022-10-16T12:08:45;12.13;;;6.93;;
17363;SDS011;8799;43.594;13.526;2022-10-16T12:11:22;11.23;;;7.00;;
17363;SDS011;8799;43.594;13.526;2022-10-16T12:14:03;10.97;;;6.77;;
17363;SDS011;8799;43.594;13.526;2022-10-16T12:16:54;13.40;;;6.80;;
17363;SDS011;8799;43.594;13.526;2022-10-16T12:19:23;16.63;;;8.63;;
17363;SDS011;8799;43.594;13.526;2022-10-16T12:21:54;12.57;;;7.27;;
17363;SDS011;8799;43.594;13.526;2022-10-16T12:24:34;10.63;;;6.80;;
17363;SDS011;8799;43.594;13.526;2022-10-16T12:27:04;13.60;;;8.60;;
17363;SDS011;8799;43.594;13.526;2022-10-16T12:29:34;14.13;;;7.90;;
17363;SDS011;8799;43.594;13.526;2022-10-16T12:32:18;12.57;;;7.80;;
17363;SDS011;8799;43.594;13.526;2022-10-16T12:34:51;15.67;;;8.13;;
17363;SDS011;8799;43.594;13.526;2022-10-16T12:37:20;13.60;;;8.03;;
17363;SDS011;8799;43.594;13.526;2022-10-16T12:39:50;12.23;;;7.30;;
17363;SDS011;8799;43.594;13.526;2022-10-16T12:42:21;14.57;;;7.93;;
17363;SDS011;8799;43.594;13.526;2022-10-16T12:44:58;10.80;;;7.50;;
17363;SDS011;8799;43.594;13.526;2022-10-16T12:47:37;14.23;;;7.50;;
17363;SDS011;8799;43.594;13.526;2022-10-16T12:50:27;13.47;;;7.47;;
17363;SDS011;8799;43.594;13.526;2022-10-16T12:53:01;16.83;;;8.43;;
17363;SDS011;8799;43.594;13.526;2022-10-16T12:55:32;14.13;;;8.80;;
17363;SDS011;8799;43.594;13.526;2022-10-16T12:58:14;12.20;;;8.43;;
17363;SDS011;8799;43.594;13.526;2022-10-16T13:00:54;15.57;;;8.67;;
17363;SDS011;8799;43.594;13.526;2022-10-16T13:03:30;17.37;;;9.53;;
17363;SDS011;8799;43.594;13.526;2022-10-16T13:06:14;13.33;;;8.00;;
17363;SDS011;8799;43.594;13.526;2022-10-16T13:08:55;14.20;;;8.57;;
17363;SDS011;8799;43.594;13.526;2022-10-16T13:11:47;14.77;;;8.50;;
17363;SDS011;8799;43.594;13.526;2022-10-16T13:17:50;19.83;;;9.67;;
17363;SDS011;8799;43.594;13.526;2022-10-16T13:20:26;15.33;;;8.57;;
17363;SDS011;8799;43.594;13.526;2022-10-16T13:23:03;16.10;;;9.33;;
17363;SDS011;8799;43.594;13.526;2022-10-16T13:25:43;15.67;;;7.80;;
17363;SDS011;8799;43.594;13.526;2022-10-16T13:28:21;16.60;;;9.47;;
17363;SDS011;8799;43.594;13.526;2022-10-16T13:30:56;13.80;;;8.27;;
17363;SDS011;8799;43.594;13.526;2022-10-16T13:33:27;12.67;;;8.47;;
17363;SDS011;8799;43.594;13.526;2022-10-16T13:36:00;14.20;;;7.97;;
17363;SDS011;8799;43.594;13.526;2022-10-16T13:38:29;11.87;;;7.60;;
17363;SDS011;8799;43.594;13.526;2022-10-16T13:40:59;14.40;;;7.70;;
17363;SDS011;8799;43.594;13.526;2022-10-16T13:43:28;13.10;;;8.40;;
17363;SDS011;8799;43.594;13.526;2022-10-16T13:46:01;12.03;;;8.07;;
17363;SDS011;8799;43.594;13.526;2022-10-16T13:48:31;10.50;;;7.30;;
17363;SDS011;8799;43.594;13.526;2022-10-16T13:51:12;11.60;;;6.67;;
17363;SDS011;8799;43.594;13.526;2022-10-16T13:53:42;12.13;;;6.90;;
17363;SDS011;8799;43.594;13.526;2022-10-16T13:56:11;11.40;;;7.03;;
17363;SDS011;8799;43.594;13.526;2022-10-16T13:59:03;11.10;;;6.97;;
17363;SDS011;8799;43.594;13.526;2022-10-16T14:01:35;14.67;;;7.27;;
17363;SDS011;8799;43.594;13.526;2022-10-16T14:04:09;11.43;;;7.07;;
17363;SDS011;8799;43.594;13.526;2022-10-16T14:06:42;10.77;;;6.80;;
17363;SDS011;8799;43.594;13.526;2022-10-16T14:09:14;12.77;;;7.70;;
17363;SDS011;8799;43.594;13.526;2022-10-16T14:11:49;14.10;;;6.87;;
17363;SDS011;8799;43.594;13.526;2022-10-16T14:14:19;10.93;;;6.97;;
17363;SDS011;8799;43.594;13.526;2022-10-16T14:16:51;17.10;;;7.93;;
17363;SDS011;8799;43.594;13.526;2022-10-16T14:19:19;11.70;;;6.57;;
17363;SDS011;8799;43.594;13.526;2022-10-16T14:21:51;11.50;;;7.30;;
17363;SDS011;8799;43.594;13.526;2022-10-16T14:24:22;14.00;;;7.27;;
17363;SDS011;8799;43.594;13.526;2022-10-16T14:26:54;12.20;;;7.07;;
17363;SDS011;8799;43.594;13.526;2022-10-16T14:29:22;12.37;;;7.43;;
17363;SDS011;8799;43.594;13.526;2022-10-16T14:31:54;13.00;;;7.37;;
17363;SDS011;8799;43.594;13.526;2022-10-16T14:34:36;11.63;;;7.43;;
17363;SDS011;8799;43.594;13.526;2022-10-16T14:37:08;13.50;;;7.20;;
17363;SDS011;8799;43.594;13.526;2022-10-16T14:39:41;13.40;;;7.83;;
17363;SDS011;8799;43.594;13.526;2022-10-16T14:42:11;16.57;;;8.47;;
17363;SDS011;8799;43.594;13.526;2022-10-16T14:44:44;18.90;;;8.37;;
17363;SDS011;8799;43.594;13.526;2022-10-16T14:47:13;16.83;;;8.57;;
17363;SDS011;8799;43.594;13.526;2022-10-16T14:49:42;15.77;;;8.40;;
17363;SDS011;8799;43.594;13.526;2022-10-16T14:52:13;16.10;;;9.17;;
17363;SDS011;8799;43.594;13.526;2022-10-16T14:54:41;15.60;;;8.50;;
17363;SDS011;8799;43.594;13.526;2022-10-16T14:57:15;12.50;;;7.97;;
17363;SDS011;8799;43.594;13.526;2022-10-16T14:59:44;13.37;;;8.60;;
17363;SDS011;8799;43.594;13.526;2022-10-16T15:02:16;14.93;;;8.70;;